EGCC/MAN METAR and TAF weather

Enter ICAO airport designator
Station Type Date Time Source
EGCC METAR 2018/01/21 12:20 UTC NOAA

EGCC 211220Z AUTO 15007G17KT 100V230 9999 -RA BKN012/// BKN017/// OVC025/// //////TCU 02/00 Q1008


Station Type Date Time Source
EGCC Decoded METAR 2018/01/21 12:20 UTC NOAA

Manchester Airport, United Kingdom (EGCC) 53-21N 002-17W 0M
Jan 21, 2018 - 07:20 AM EST / 2018.01.21 1220 UTC
Wind: from the SSE (150 degrees) at 8 MPH (7 KT) gusting to 20 MPH (17 KT) (direction variable):0
Visibility: greater than 7 mile(s):0
Sky conditions: overcast
Weather: light rain; Towering cumulus clouds observed
Temperature: 35 F (2 C)
Windchill: 28 F (-2 C):1
Dew Point: 32 F (0 C)
Relative Humidity: 86%
Pressure (altimeter): 29.77 in. Hg (1008 hPa)
ob: EGCC 211220Z AUTO 15007G17KT 100V230 9999 -RA BKN012/// BKN017/// OVC025/// //////TCU 02/00 Q1008
cycle: 12

Station Type Date Time Source
EGCC TAF 2018/01/21 12:36 UTC NOAA

TAF
AMD EGCC 211231Z 2112/2218 12005KT 9999 FEW003 SCT010
BECMG 2112/2115 18010KT 6000 BKN006
TEMPO 2112/2114 1200 SN BKN003 PROB30
TEMPO 2112/2114 FZRA
TEMPO 2114/2120 3000 RADZ BKN003
BECMG 2119/2122 27010KT 9999 SCT035


Example: see airport list